Time;durP1;ratioP1;P1;durP2;ratioP2;P2;SDS_P1;SDS_P2;PMS_P1;PMS_P2;Temp;Humidity;BMP_temperature;BMP_pressure;BME280_temperature;BME280_humidity;BME280_pressure;Samples;Min_cycle;Max_cycle;Signal;HPM_P1;HPM_P2
2021/05/18 00:00:51;;;;;;;22.42;14.02;;;11.70;99.90;;;;;;5060264;28;20136;-83
2021/05/18 00:03:18;;;;;;;22.10;14.80;;;11.70;99.90;;;;;;5060639;28;20068;-82
2021/05/18 00:05:47;;;;;;;21.50;15.05;;;11.60;99.90;;;;;;5060577;28;20084;-82
2021/05/18 00:08:15;;;;;;;21.85;14.90;;;11.60;99.90;;;;;;5059774;28;20108;-82
2021/05/18 00:13:30;;;;;;;21.48;14.35;;;11.60;99.90;;;;;;5059911;28;20060;-80
2021/05/18 00:15:59;;;;;;;28.75;14.95;;;11.70;99.90;;;;;;5059557;28;20080;-80
2021/05/18 00:18:26;;;;;;;20.70;13.98;;;11.70;99.90;;;;;;5060038;28;20088;-81
2021/05/18 00:20:53;;;;;;;24.58;15.00;;;11.80;99.90;;;;;;5060336;28;20524;-81
2021/05/18 00:23:20;;;;;;;25.92;15.52;;;11.80;99.90;;;;;;5060001;28;20553;-83
2021/05/18 00:25:46;;;;;;;22.83;15.07;;;11.80;99.90;;;;;;5059368;28;20108;-81
2021/05/18 00:28:13;;;;;;;28.58;14.98;;;11.90;99.90;;;;;;5060241;28;20076;-79
2021/05/18 00:30:41;;;;;;;23.00;15.15;;;11.90;99.90;;;;;;5060402;28;20528;-80
2021/05/18 00:33:13;;;;;;;20.95;14.85;;;11.90;99.90;;;;;;5060583;28;20053;-79
2021/05/18 00:35:40;;;;;;;25.20;14.93;;;12.00;99.90;;;;;;5060649;28;20060;-79
2021/05/18 00:38:06;;;;;;;22.30;16.75;;;12.00;99.90;;;;;;5060866;28;20127;-79
2021/05/18 00:40:33;;;;;;;26.73;16.08;;;12.00;99.90;;;;;;5060006;28;20088;-80
2021/05/18 00:42:59;;;;;;;22.52;15.80;;;12.00;99.90;;;;;;5059550;28;20132;-80
2021/05/18 00:45:29;;;;;;;26.30;16.75;;;12.00;99.90;;;;;;5060295;28;20058;-80
2021/05/18 00:47:57;;;;;;;20.60;16.92;;;12.10;99.90;;;;;;5060671;28;20513;-80
2021/05/18 00:50:23;;;;;;;27.60;17.58;;;12.00;99.90;;;;;;5062566;28;20080;-80
2021/05/18 00:52:50;;;;;;;29.85;17.48;;;11.90;99.90;;;;;;5064251;28;20134;-79
2021/05/18 00:55:21;;;;;;;26.33;17.35;;;11.90;99.90;;;;;;5064284;28;20109;-80
2021/05/18 01:00:34;;;;;;;25.00;18.13;;;12.00;99.90;;;;;;5059415;28;20132;-80
2021/05/18 01:03:02;;;;;;;29.73;18.65;;;12.10;99.90;;;;;;5059776;28;20560;-81
2021/05/18 01:08:12;;;;;;;30.73;19.73;;;12.10;99.90;;;;;;5058472;28;20123;-79
2021/05/18 01:10:39;;;;;;;30.50;20.42;;;12.10;99.90;;;;;;5059423;28;20045;-78
2021/05/18 01:13:06;;;;;;;27.98;18.17;;;12.00;99.90;;;;;;5060282;28;20135;-80
2021/05/18 01:15:32;;;;;;;31.58;19.20;;;12.00;99.90;;;;;;5056396;28;20106;-79
2021/05/18 01:17:58;;;;;;;32.08;19.60;;;12.00;99.90;;;;;;5057900;28;20072;-80
2021/05/18 01:20:26;;;;;;;29.05;19.65;;;11.90;99.90;;;;;;5059097;28;20191;-81
2021/05/18 01:22:53;;;;;;;29.70;19.85;;;11.90;99.90;;;;;;5059601;28;20052;-80
2021/05/18 01:25:21;;;;;;;28.92;19.70;;;11.90;99.90;;;;;;5059516;28;20057;-82
2021/05/18 01:27:48;;;;;;;24.90;19.15;;;11.90;99.90;;;;;;5059793;28;20477;-81
2021/05/18 01:30:15;;;;;;;31.30;20.02;;;11.90;99.90;;;;;;5058619;28;20063;-80
2021/05/18 01:32:43;;;;;;;26.70;19.00;;;11.90;99.90;;;;;;5058954;28;20642;-83
2021/05/18 01:35:11;;;;;;;35.35;20.65;;;11.90;99.90;;;;;;5058650;28;20050;-81
2021/05/18 01:37:38;;;;;;;25.88;18.60;;;11.90;99.90;;;;;;5058845;28;20140;-81
2021/05/18 01:40:26;;;;;;;25.85;18.67;;;11.80;99.90;;;;;;5058387;28;20132;-81
2021/05/18 01:42:54;;;;;;;24.23;16.60;;;11.80;99.90;;;;;;5060025;28;20045;-82
2021/05/18 01:45:22;;;;;;;20.75;15.55;;;11.80;99.90;;;;;;5058632;28;20412;-82
2021/05/18 01:47:51;;;;;;;22.60;15.63;;;11.90;99.90;;;;;;5057563;28;20128;-81
2021/05/18 01:50:19;;;;;;;24.27;15.63;;;11.90;99.90;;;;;;5057310;28;20047;-81
2021/05/18 01:52:47;;;;;;;22.08;16.27;;;11.90;99.90;;;;;;5057389;28;20045;-81
2021/05/18 01:55:18;;;;;;;22.23;15.68;;;11.80;99.90;;;;;;5057544;28;20053;-82
2021/05/18 01:57:44;;;;;;;20.38;14.25;;;11.80;99.90;;;;;;5058027;28;20048;-82
2021/05/18 02:00:15;;;;;;;27.70;14.25;;;11.80;99.90;;;;;;5058405;28;20056;-80
2021/05/18 02:02:41;;;;;;;16.83;13.13;;;11.70;99.90;;;;;;5058587;28;20128;-81
2021/05/18 02:05:11;;;;;;;16.83;11.57;;;11.70;99.90;;;;;;5058098;28;20079;-81
2021/05/18 02:07:41;;;;;;;19.92;11.90;;;11.70;99.90;;;;;;5058249;28;20095;-82
2021/05/18 02:10:09;;;;;;;16.42;11.25;;;11.70;99.90;;;;;;5057480;28;20057;-82
2021/05/18 02:12:37;;;;;;;20.80;11.20;;;11.70;99.90;;;;;;5056128;28;20124;-79
2021/05/18 02:15:12;;;;;;;21.58;11.38;;;11.70;99.90;;;;;;5056410;28;20083;-79
2021/05/18 02:17:42;;;;;;;17.50;11.32;;;11.70;99.90;;;;;;5056622;28;20076;-82
2021/05/18 02:20:21;;;;;;;17.73;11.93;;;11.60;99.90;;;;;;5055844;28;20084;-80
2021/05/18 02:25:43;;;;;;;17.88;11.73;;;11.60;99.90;;;;;;4974968;28;20129;-80
2021/05/18 02:28:10;;;;;;;16.05;10.50;;;11.60;99.90;;;;;;5035676;28;20128;-79
2021/05/18 02:30:38;;;;;;;22.48;10.68;;;11.50;99.90;;;;;;5056885;28;20049;-81
2021/05/18 02:33:05;;;;;;;17.77;9.85;;;11.50;99.90;;;;;;5058040;28;20072;-80
2021/05/18 02:35:32;;;;;;;16.02;10.35;;;11.50;99.90;;;;;;5056673;28;20049;-80
2021/05/18 02:38:00;;;;;;;22.13;11.38;;;11.50;99.90;;;;;;5067903;28;20028;-83
2021/05/18 02:40:30;;;;;;;14.93;9.88;;;11.50;99.90;;;;;;5077396;28;20061;-83
2021/05/18 02:42:57;;;;;;;15.70;9.05;;;11.60;99.90;;;;;;5077587;28;20049;-83
2021/05/18 02:45:30;;;;;;;18.75;10.35;;;11.60;99.90;;;;;;5077825;28;20052;-82
2021/05/18 02:50:42;;;;;;;16.52;9.82;;;11.60;99.90;;;;;;5068043;28;20535;-80
2021/05/18 02:53:09;;;;;;;17.05;10.82;;;11.60;99.90;;;;;;5059430;28;20114;-81
2021/05/18 02:55:39;;;;;;;18.20;10.02;;;11.60;99.90;;;;;;5058584;28;20398;-81
2021/05/18 02:58:07;;;;;;;18.90;9.90;;;11.60;99.90;;;;;;5057707;28;20060;-79
2021/05/18 03:00:34;;;;;;;19.27;9.73;;;11.60;99.90;;;;;;5057145;28;20049;-79
2021/05/18 03:03:01;;;;;;;18.20;9.80;;;11.60;99.90;;;;;;5056954;28;20045;-81
2021/05/18 03:05:27;;;;;;;15.70;9.85;;;11.60;99.90;;;;;;5057620;28;20112;-80
2021/05/18 03:07:54;;;;;;;19.48;9.73;;;11.50;99.90;;;;;;5057107;28;20470;-80
2021/05/18 03:10:21;;;;;;;21.77;9.43;;;11.50;99.90;;;;;;5059332;28;20053;-79
2021/05/18 03:12:48;;;;;;;15.15;9.77;;;11.60;99.90;;;;;;5061590;28;20551;-79
2021/05/18 03:15:15;;;;;;;14.90;9.48;;;11.60;99.90;;;;;;5060521;28;20044;-80
2021/05/18 03:17:43;;;;;;;16.70;9.98;;;11.60;99.90;;;;;;5061222;28;20053;-81
2021/05/18 03:20:13;;;;;;;14.60;9.60;;;11.60;99.90;;;;;;5061972;28;20084;-80
2021/05/18 03:22:40;;;;;;;19.20;10.60;;;11.60;99.90;;;;;;5061787;28;20412;-82
2021/05/18 03:25:08;;;;;;;18.70;9.57;;;11.50;99.90;;;;;;5061909;28;20053;-80
2021/05/18 03:27:35;;;;;;;18.00;9.48;;;11.50;99.90;;;;;;5060880;28;20073;-82
2021/05/18 03:30:16;;;;;;;19.13;9.63;;;11.50;99.90;;;;;;5060942;28;20045;-82
2021/05/18 03:35:28;;;;;;;20.77;9.98;;;11.50;99.90;;;;;;5061625;28;20426;-82
2021/05/18 03:37:56;;;;;;;16.75;9.73;;;11.50;99.90;;;;;;5061886;28;20190;-81
2021/05/18 03:40:25;;;;;;;14.85;9.25;;;11.50;99.90;;;;;;5060620;28;20059;-80
2021/05/18 03:42:55;;;;;;;19.20;9.23;;;11.50;99.90;;;;;;5060411;28;20067;-81
2021/05/18 03:45:24;;;;;;;15.95;8.88;;;11.50;99.90;;;;;;5061928;28;20055;-81
2021/05/18 03:59:09;;;;;;;18.00;9.23;;;11.50;99.90;;;;;;5124439;28;20080;-79
2021/05/18 04:04:22;;;;;;;17.25;9.10;;;11.50;99.90;;;;;;5120584;28;20066;-80
2021/05/18 04:12:44;;;;;;;16.25;9.90;;;11.50;99.90;;;;;;5115033;28;20059;-79
2021/05/18 04:18:02;;;;;;;18.40;9.20;;;11.60;99.90;;;;;;5113957;28;20086;-79
2021/05/18 04:20:38;;;;;;;;;;;11.60;99.90;;;;;;5114083;28;20131;-78
2021/05/18 04:23:19;;;;;;;17.67;9.02;;;11.70;99.90;;;;;;5115274;28;19939;-81
2021/05/18 04:26:09;;;;;;;18.67;8.77;;;11.70;99.90;;;;;;5116910;28;20565;-80
2021/05/18 04:42:50;;;;;;;17.50;7.70;;;11.80;99.90;;;;;;5111947;28;20130;-82
2021/05/18 04:50:58;;;;;;;21.48;8.50;;;11.90;99.90;;;;;;5094437;28;20126;-79
2021/05/18 04:53:31;;;;;;;16.17;8.43;;;11.90;99.90;;;;;;5111393;28;20077;-81
2021/05/18 05:01:32;;;;;;;12.05;8.35;;;11.90;99.90;;;;;;5110744;28;20118;-79
2021/05/18 05:04:07;;;;;;;;;;;11.90;99.90;;;;;;5113085;28;20066;-78
2021/05/18 05:06:44;;;;;;;15.23;8.00;;;11.90;99.90;;;;;;5102633;28;19920;-79
2021/05/18 05:09:19;;;;;;;11.73;8.15;;;11.90;99.90;;;;;;5096757;28;20077;-78
2021/05/18 05:14:30;;;;;;;17.83;7.95;;;11.90;99.90;;;;;;5096752;28;20098;-79
2021/05/18 05:16:58;;;;;;;19.95;8.32;;;12.00;99.90;;;;;;5096591;28;20127;-79
2021/05/18 05:19:27;;;;;;;14.00;8.68;;;12.00;99.90;;;;;;5098821;28;20055;-80
2021/05/18 05:21:54;;;;;;;14.25;7.53;;;11.90;99.90;;;;;;5101577;28;20460;-79
2021/05/18 05:24:20;;;;;;;17.90;7.93;;;12.00;99.90;;;;;;5098625;28;20055;-79
2021/05/18 05:26:47;;;;;;;17.00;7.20;;;12.00;99.90;;;;;;5102459;28;20205;-80
2021/05/18 05:29:14;;;;;;;15.98;7.45;;;12.00;99.90;;;;;;5100074;28;20052;-80
2021/05/18 05:31:40;;;;;;;15.02;7.82;;;12.00;99.90;;;;;;5102062;28;20052;-79
2021/05/18 05:34:11;;;;;;;11.82;7.50;;;12.00;99.90;;;;;;5101908;28;20131;-80
2021/05/18 05:36:38;;;;;;;21.23;6.97;;;12.00;99.90;;;;;;5101118;28;20075;-81
2021/05/18 05:39:08;;;;;;;12.77;7.32;;;11.90;99.90;;;;;;5103749;28;20048;-80
2021/05/18 05:41:35;;;;;;;11.75;6.60;;;12.00;99.90;;;;;;5104796;28;20073;-79
2021/05/18 05:44:02;;;;;;;13.48;6.80;;;11.90;99.90;;;;;;5105295;28;20067;-81
2021/05/18 05:46:29;;;;;;;15.80;6.97;;;11.90;99.90;;;;;;5101293;28;20135;-79
2021/05/18 05:48:55;;;;;;;11.63;7.00;;;11.90;99.90;;;;;;5097542;28;20079;-80
2021/05/18 05:51:24;;;;;;;16.63;7.40;;;11.80;99.90;;;;;;5098261;28;20127;-80
2021/05/18 05:53:51;;;;;;;15.35;7.50;;;11.80;99.90;;;;;;5097009;28;20044;-77
2021/05/18 05:56:18;;;;;;;14.48;6.75;;;11.70;99.90;;;;;;5097428;28;20064;-80
2021/05/18 05:58:45;;;;;;;14.70;7.65;;;11.60;99.90;;;;;;5097648;28;20090;-79
2021/05/18 06:01:11;;;;;;;16.83;7.47;;;11.60;99.90;;;;;;5099617;28;20079;-80
2021/05/18 06:03:38;;;;;;;14.23;7.93;;;11.60;99.90;;;;;;5099393;28;20719;-81
2021/05/18 06:06:05;;;;;;;15.30;7.47;;;11.50;99.90;;;;;;5100865;28;20056;-81
2021/05/18 06:08:37;;;;;;;14.30;7.65;;;11.50;99.90;;;;;;5099367;28;20048;-80
2021/05/18 06:11:07;;;;;;;12.25;8.38;;;11.40;99.90;;;;;;5097505;28;20077;-80
2021/05/18 06:13:55;;;;;;;11.55;7.68;;;11.40;99.90;;;;;;5098221;28;20389;-80
2021/05/18 06:46:55;;;;;;;14.10;9.75;;;11.50;99.90;;;;;;5109961;28;20435;-79
2021/05/18 06:49:22;;;;;;;14.07;10.55;;;11.60;99.90;;;;;;5111499;28;20052;-82
2021/05/18 06:51:48;;;;;;;18.67;11.10;;;11.70;99.90;;;;;;5108934;28;20048;-80
2021/05/18 06:54:15;;;;;;;16.17;11.50;;;11.80;99.90;;;;;;5101959;28;20509;-80
2021/05/18 06:56:45;;;;;;;18.08;12.02;;;11.90;99.90;;;;;;5102191;28;20048;-80
2021/05/18 07:01:58;;;;;;;19.27;12.57;;;12.00;99.90;;;;;;5101007;28;20104;-80
2021/05/18 07:04:25;;;;;;;20.08;12.80;;;12.00;99.90;;;;;;5100559;28;20542;-81
2021/05/18 07:06:55;;;;;;;18.48;12.60;;;12.00;99.90;;;;;;5099672;28;20055;-80
2021/05/18 07:09:22;;;;;;;18.33;12.48;;;12.00;99.90;;;;;;5101853;28;20048;-81
2021/05/18 07:11:49;;;;;;;19.58;12.85;;;12.10;99.90;;;;;;5101254;28;20075;-83
2021/05/18 07:14:16;;;;;;;23.75;13.10;;;12.10;99.90;;;;;;5102553;28;20062;-81
2021/05/18 07:16:43;;;;;;;21.38;12.90;;;12.20;99.90;;;;;;5100343;28;20062;-82
2021/05/18 07:19:09;;;;;;;17.70;11.90;;;12.20;99.90;;;;;;5100669;28;20116;-80
2021/05/18 07:21:35;;;;;;;22.20;12.82;;;12.30;99.90;;;;;;5099368;28;20079;-80
2021/05/18 07:24:05;;;;;;;21.40;13.68;;;12.40;99.90;;;;;;5099274;28;20044;-81
2021/05/18 07:26:31;;;;;;;23.13;13.10;;;12.50;99.90;;;;;;5098482;28;20059;-82
2021/05/18 07:28:58;;;;;;;20.20;12.70;;;12.60;99.90;;;;;;5098880;28;20044;-81
2021/05/18 07:31:25;;;;;;;20.75;12.32;;;12.70;99.90;;;;;;5099795;28;20107;-82
2021/05/18 07:33:51;;;;;;;18.48;12.07;;;12.90;99.90;;;;;;5099270;28;20090;-82
2021/05/18 07:36:18;;;;;;;17.90;11.85;;;13.10;99.90;;;;;;5099260;28;20078;-81
2021/05/18 07:38:48;;;;;;;17.73;12.38;;;13.20;99.90;;;;;;5098012;28;20076;-79
2021/05/18 07:41:16;;;;;;;21.45;12.93;;;13.30;99.90;;;;;;5097324;28;20518;-80
2021/05/18 07:43:42;;;;;;;23.25;13.50;;;13.50;99.90;;;;;;5094061;28;20059;-80
2021/05/18 07:46:15;;;;;;;26.23;14.30;;;13.50;99.90;;;;;;5094053;28;20133;-80
2021/05/18 07:48:45;;;;;;;22.25;15.05;;;13.40;99.90;;;;;;5093364;28;20048;-78
2021/05/18 07:51:22;;;;;;;27.58;16.77;;;13.30;99.90;;;;;;5094182;28;20052;-79
2021/05/18 07:59:24;;;;;;;28.80;17.55;;;13.10;99.90;;;;;;5094788;28;20423;-79
2021/05/18 08:07:21;;;;;;;20.08;14.25;;;13.30;99.90;;;;;;5095972;28;20450;-80
2021/05/18 08:09:51;;;;;;;20.92;14.98;;;13.40;99.90;;;;;;5094961;28;20135;-79
2021/05/18 08:12:17;;;;;;;24.25;14.60;;;13.40;99.90;;;;;;5093557;28;20051;-79
2021/05/18 08:14:47;;;;;;;18.27;13.68;;;13.30;99.90;;;;;;5092368;28;20044;-78
2021/05/18 08:17:20;;;;;;;24.83;14.35;;;13.10;99.90;;;;;;5092812;28;20048;-79
2021/05/18 10:34:58;;;;;;;16.10;8.63;;;15.70;99.90;;;;;;5017712;28;20046;-82
2021/05/18 10:37:37;;;;;;;15.30;7.93;;;15.70;99.90;;;;;;5016086;28;20421;-82
2021/05/18 10:40:25;;;;;;;14.20;7.25;;;15.70;99.90;;;;;;5017705;28;20422;-81
2021/05/18 10:43:27;;;;;;;10.35;6.85;;;15.50;99.90;;;;;;5014482;28;20058;-81
2021/05/18 10:46:19;;;;;;;9.82;6.43;;;15.70;99.90;;;;;;5014718;28;20489;-80
2021/05/18 10:49:08;;;;;;;10.32;6.13;;;15.70;99.90;;;;;;5015958;28;20054;-80
2021/05/18 10:51:43;;;;;;;10.18;6.63;;;15.70;99.90;;;;;;5016015;28;20064;-81
2021/05/18 10:54:17;;;;;;;10.57;6.70;;;15.60;99.90;;;;;;5014662;28;20073;-76
2021/05/18 10:57:01;;;;;;;11.27;6.53;;;15.60;99.90;;;;;;5014229;28;20046;-80
2021/05/18 10:59:29;;;;;;;9.75;6.97;;;15.70;99.90;;;;;;5015223;28;20049;-80
2021/05/18 11:02:02;;;;;;;10.40;6.95;;;15.70;99.90;;;;;;5014355;28;20065;-80
2021/05/18 11:04:31;;;;;;;10.52;7.40;;;15.50;99.90;;;;;;5016697;28;20140;-81
2021/05/18 11:06:59;;;;;;;9.50;7.90;;;15.30;99.90;;;;;;5017925;28;20049;-81
2021/05/18 11:09:27;;;;;;;11.60;7.57;;;15.00;99.90;;;;;;5017187;28;20088;-80
2021/05/18 11:12:02;;;;;;;11.00;8.27;;;14.80;99.90;;;;;;5016901;28;20132;-80
2021/05/18 11:14:34;;;;;;;8.35;6.93;;;14.50;99.90;;;;;;5016633;28;20057;-80
2021/05/18 11:17:13;;;;;;;17.80;7.47;;;14.30;99.90;;;;;;5017419;28;20498;-80
2021/05/18 11:20:13;;;;;;;10.98;6.50;;;14.20;99.90;;;;;;5033384;28;20053;-82
2021/05/18 11:25:41;;;;;;;10.40;6.97;;;14.30;99.90;;;;;;5016708;28;20048;-81
2021/05/18 11:28:13;;;;;;;11.20;7.75;;;14.30;99.90;;;;;;5022811;28;20073;-82
2021/05/18 11:30:42;;;;;;;11.93;8.75;;;14.40;99.90;;;;;;5020240;28;20439;-82
2021/05/18 11:33:08;;;;;;;13.15;9.20;;;14.50;99.90;;;;;;5016880;28;20080;-83
2021/05/18 11:35:36;;;;;;;12.98;9.10;;;14.90;99.90;;;;;;5018120;28;20107;-81
2021/05/18 11:38:05;;;;;;;11.77;8.45;;;15.10;99.90;;;;;;5016990;28;20096;-82
2021/05/18 11:40:40;;;;;;;12.18;9.13;;;15.40;99.90;;;;;;5017351;28;20208;-82
2021/05/18 11:43:18;;;;;;;15.82;8.63;;;15.70;99.90;;;;;;5014681;28;20458;-83
2021/05/18 11:45:45;;;;;;;10.02;7.53;;;16.10;99.90;;;;;;5009467;28;20593;-83
2021/05/18 11:48:13;;;;;;;10.07;7.38;;;16.40;99.90;;;;;;5015606;28;20049;-82
2021/05/18 11:50:41;;;;;;;8.77;7.40;;;16.50;99.90;;;;;;5016769;28;20077;-82
2021/05/18 11:53:08;;;;;;;10.30;6.97;;;16.70;99.90;;;;;;5014092;28;20046;-79
2021/05/18 11:55:37;;;;;;;9.30;6.57;;;16.70;99.90;;;;;;5009798;28;20101;-82
2021/05/18 11:58:03;;;;;;;8.05;6.97;;;16.70;99.90;;;;;;5015781;28;20085;-79
2021/05/18 12:00:34;;;;;;;9.55;7.22;;;16.80;99.90;;;;;;5015075;28;20131;-80
2021/05/18 12:03:06;;;;;;;9.90;6.75;;;16.90;99.90;;;;;;5016165;28;20518;-81
2021/05/18 12:05:34;;;;;;;10.38;7.60;;;16.90;99.90;;;;;;5015110;28;20037;-79
2021/05/18 12:08:05;;;;;;;10.45;7.80;;;16.80;99.90;;;;;;5015065;28;20137;-80
2021/05/18 12:10:37;;;;;;;9.10;7.60;;;16.90;99.90;;;;;;5014574;28;20066;-78
2021/05/18 12:13:05;;;;;;;9.05;7.38;;;16.90;99.90;;;;;;5016638;28;20054;-81
2021/05/18 12:15:32;;;;;;;9.88;7.30;;;17.00;99.90;;;;;;5016243;28;20050;-80
2021/05/18 12:18:00;;;;;;;9.25;7.32;;;17.20;99.90;;;;;;5019790;28;20053;-81
2021/05/18 12:20:28;;;;;;;11.43;7.70;;;17.40;99.90;;;;;;5019290;28;20649;-80
2021/05/18 12:22:57;;;;;;;12.48;7.80;;;17.50;99.90;;;;;;5019618;28;20096;-80
2021/05/18 12:25:35;;;;;;;9.68;7.35;;;17.80;99.90;;;;;;5018907;28;20061;-79
2021/05/18 12:28:09;;;;;;;10.73;7.72;;;17.90;99.90;;;;;;5018837;28;20136;-80
2021/05/18 12:30:43;;;;;;;10.13;7.53;;;18.00;99.90;;;;;;5016866;28;20046;-80
2021/05/18 12:33:10;;;;;;;14.82;7.10;;;18.30;99.90;;;;;;5016498;28;20049;-79
2021/05/18 12:35:36;;;;;;;10.18;7.60;;;18.20;99.90;;;;;;5018236;28;20048;-80
2021/05/18 12:38:15;;;;;;;10.38;7.18;;;18.00;99.90;;;;;;5018777;28;20058;-80
2021/05/18 12:40:45;;;;;;;9.82;7.10;;;17.80;99.90;;;;;;5016134;28;20081;-80
2021/05/18 12:43:15;;;;;;;10.65;7.25;;;17.70;99.90;;;;;;5020238;28;20046;-80
2021/05/18 12:45:43;;;;;;;8.63;7.15;;;17.70;99.90;;;;;;5017894;28;20541;-76
2021/05/18 12:48:12;;;;;;;8.32;6.97;;;17.70;99.90;;;;;;5017464;28;20065;-79
2021/05/18 12:50:43;;;;;;;11.00;7.22;;;17.80;99.90;;;;;;5016370;28;20050;-79
2021/05/18 12:53:27;;;;;;;11.55;7.70;;;18.10;99.90;;;;;;5014923;28;20426;-79
2021/05/18 12:55:58;;;;;;;9.15;7.07;;;18.30;99.90;;;;;;5013365;28;20443;-79
2021/05/18 12:58:27;;;;;;;8.98;7.10;;;18.30;99.90;;;;;;5016987;28;20061;-79
2021/05/18 13:01:08;;;;;;;8.88;7.80;;;18.40;99.90;;;;;;5017064;28;20105;-80
2021/05/18 13:03:35;;;;;;;9.38;7.60;;;18.10;99.90;;;;;;5017802;28;20116;-79
2021/05/18 13:06:01;;;;;;;10.40;7.85;;;17.80;99.90;;;;;;5016841;28;20151;-78
2021/05/18 13:08:32;;;;;;;12.23;8.77;;;17.40;99.90;;;;;;5015584;28;20129;-77
2021/05/18 13:11:10;;;;;;;17.48;12.20;;;16.90;99.90;;;;;;5013118;28;20124;-79
2021/05/18 13:13:48;;;;;;;11.98;10.60;;;16.30;99.90;;;;;;5016574;28;20054;-78
2021/05/18 13:16:19;;;;;;;13.25;10.68;;;15.60;99.90;;;;;;5018671;28;20140;-79
2021/05/18 13:18:56;;;;;;;15.45;11.38;;;14.80;99.90;;;;;;5018727;28;20103;-79
2021/05/18 13:21:28;;;;;;;13.13;11.32;;;14.40;99.90;;;;;;5017971;28;20084;-79
2021/05/18 13:24:21;;;;;;;15.55;13.95;;;14.00;99.90;;;;;;5017516;28;20129;-80
2021/05/18 13:26:47;;;;;;;16.33;14.27;;;13.80;99.90;;;;;;5017955;28;20050;-80
2021/05/18 13:29:17;;;;;;;20.65;15.48;;;13.70;99.90;;;;;;5019557;28;20129;-80
2021/05/18 13:31:45;;;;;;;20.33;15.00;;;13.70;99.90;;;;;;5016462;28;20688;-79
2021/05/18 13:34:12;;;;;;;18.15;15.80;;;13.50;99.90;;;;;;5016782;28;20105;-78
2021/05/18 13:36:39;;;;;;;16.45;14.70;;;13.60;99.90;;;;;;5016614;28;20042;-80
2021/05/18 13:39:07;;;;;;;19.20;15.55;;;13.90;99.90;;;;;;5017593;28;20133;-80
2021/05/18 13:41:34;;;;;;;16.42;13.75;;;14.20;99.90;;;;;;5017140;28;20050;-81
2021/05/18 13:44:02;;;;;;;13.82;12.25;;;14.70;99.90;;;;;;5017353;28;20133;-81
2021/05/18 13:46:28;;;;;;;12.73;11.43;;;15.20;99.90;;;;;;5016934;28;20054;-81
2021/05/18 13:48:54;;;;;;;19.10;12.52;;;15.40;99.90;;;;;;5016486;28;20074;-80
2021/05/18 13:51:21;;;;;;;14.65;11.73;;;15.60;99.90;;;;;;5015837;28;20056;-81
2021/05/18 13:53:48;;;;;;;11.90;10.60;;;15.70;99.90;;;;;;5016515;28;20109;-80
2021/05/18 13:56:15;;;;;;;10.77;9.77;;;15.80;99.90;;;;;;5016017;28;20510;-79
2021/05/18 13:58:41;;;;;;;16.05;10.88;;;15.80;99.90;;;;;;5014494;28;20131;-80
2021/05/18 14:01:10;;;;;;;12.05;10.70;;;15.80;99.90;;;;;;5016778;28;20136;-78
2021/05/18 14:03:37;;;;;;;12.43;9.43;;;15.80;99.90;;;;;;5018348;28;20061;-81
2021/05/18 14:06:04;;;;;;;10.75;8.27;;;15.60;99.90;;;;;;5018943;28;20046;-81
2021/05/18 14:08:33;;;;;;;13.05;9.82;;;15.50;99.90;;;;;;5018859;28;20112;-82
2021/05/18 14:11:03;;;;;;;9.70;8.70;;;15.30;99.90;;;;;;5022691;28;20058;-81
2021/05/18 14:13:32;;;;;;;10.65;9.55;;;15.20;99.90;;;;;;5022532;28;20046;-81
2021/05/18 14:15:58;;;;;;;9.90;8.82;;;15.10;99.90;;;;;;5023132;28;20491;-80
2021/05/18 14:18:26;;;;;;;11.05;9.90;;;15.10;99.90;;;;;;5025199;28;20061;-81
2021/05/18 14:20:53;;;;;;;12.50;11.15;;;14.90;99.90;;;;;;5021526;28;20109;-78
2021/05/18 14:23:22;;;;;;;14.20;11.75;;;15.00;99.90;;;;;;5018584;28;20164;-79
2021/05/18 14:25:50;;;;;;;13.15;10.82;;;15.00;99.90;;;;;;5020482;28;20096;-80
2021/05/18 14:28:17;;;;;;;11.13;9.82;;;15.10;99.90;;;;;;5021442;28;20122;-79
2021/05/18 14:30:44;;;;;;;11.43;10.10;;;15.20;99.90;;;;;;5023713;28;20430;-81
2021/05/18 14:33:11;;;;;;;12.82;11.15;;;15.10;99.90;;;;;;5025170;28;20122;-81
2021/05/18 14:35:39;;;;;;;15.38;10.25;;;15.10;99.90;;;;;;5026503;28;20042;-79
2021/05/18 14:38:09;;;;;;;14.02;11.75;;;15.00;99.90;;;;;;5033948;28;20129;-83
2021/05/18 14:46:14;;;;;;;12.73;11.43;;;14.80;99.90;;;;;;5015293;28;20046;-79
2021/05/18 14:57:03;;;;;;;13.40;12.00;;;14.90;99.90;;;;;;5009858;28;20212;-80
2021/05/18 14:59:29;;;;;;;15.32;13.15;;;15.00;99.90;;;;;;5030132;28;20401;-80
2021/05/18 15:01:56;;;;;;;15.10;11.70;;;15.10;99.90;;;;;;5013855;28;20519;-80
2021/05/18 15:04:22;;;;;;;14.73;12.13;;;15.10;99.90;;;;;;5018824;28;20073;-81
2021/05/18 15:06:50;;;;;;;14.82;12.65;;;15.10;99.90;;;;;;5018430;28;20472;-81
2021/05/18 15:09:16;;;;;;;12.88;11.43;;;15.10;99.90;;;;;;5015234;28;20096;-81
2021/05/18 15:11:43;;;;;;;11.70;10.50;;;15.10;99.90;;;;;;5023852;28;20049;-81
2021/05/18 15:14:10;;;;;;;13.63;10.68;;;15.10;99.90;;;;;;5031315;28;20053;-81
2021/05/18 15:16:37;;;;;;;13.20;11.80;;;15.00;99.90;;;;;;5014266;28;20145;-81
2021/05/18 15:19:07;;;;;;;13.18;11.77;;;15.00;99.90;;;;;;5017021;28;20060;-81
2021/05/18 15:21:34;;;;;;;13.15;11.75;;;15.10;99.90;;;;;;5019419;28;20057;-81
2021/05/18 15:24:01;;;;;;;14.55;12.32;;;15.00;99.90;;;;;;5010543;28;20642;-81
2021/05/18 15:26:27;;;;;;;13.38;11.23;;;15.10;99.90;;;;;;5009628;28;20136;-81
2021/05/18 15:28:54;;;;;;;15.52;12.10;;;15.20;99.90;;;;;;5001700;28;20077;-80
2021/05/18 15:31:21;;;;;;;17.15;13.45;;;15.10;99.90;;;;;;5004190;28;20094;-80
2021/05/18 15:33:49;;;;;;;18.90;13.00;;;15.10;99.90;;;;;;5001490;28;20050;-80
2021/05/18 15:36:16;;;;;;;17.13;13.52;;;15.00;99.90;;;;;;5004482;28;21203;-79
2021/05/18 15:38:44;;;;;;;16.50;14.15;;;14.90;99.90;;;;;;5006839;28;20137;-78
2021/05/18 15:41:14;;;;;;;17.17;14.23;;;14.80;99.90;;;;;;5007310;28;20112;-78
2021/05/18 15:43:41;;;;;;;15.52;13.65;;;14.80;99.90;;;;;;5012270;28;20053;-77
2021/05/18 15:46:08;;;;;;;13.77;12.13;;;14.80;99.90;;;;;;5010017;28;20449;-77
2021/05/18 15:48:34;;;;;;;15.38;11.98;;;14.90;99.90;;;;;;5014843;28;20140;-77
2021/05/18 15:51:01;;;;;;;14.48;12.05;;;14.80;99.90;;;;;;5038317;23;20126;-81
2021/05/18 15:53:28;;;;;;;13.60;12.10;;;15.00;99.90;;;;;;5060623;28;20044;-81
2021/05/18 15:55:57;;;;;;;12.40;11.10;;;15.00;99.90;;;;;;5053386;28;20041;-83
2021/05/18 15:58:25;;;;;;;14.40;12.23;;;15.10;99.90;;;;;;5059403;28;20104;-81
2021/05/18 16:00:52;;;;;;;15.80;12.73;;;15.20;99.90;;;;;;5059206;28;20080;-81
2021/05/18 16:03:19;;;;;;;13.93;12.25;;;15.40;99.90;;;;;;5039448;28;20045;-80
2021/05/18 16:05:46;;;;;;;17.40;13.38;;;15.40;99.90;;;;;;5039017;28;20049;-82
2021/05/18 16:11:02;;;;;;;13.63;11.77;;;15.50;99.90;;;;;;5038333;28;20532;-79
2021/05/18 16:13:35;;;;;;;14.73;11.98;;;15.50;99.90;;;;;;5038458;28;20064;-80
2021/05/18 16:16:05;;;;;;;15.30;13.70;;;15.40;99.90;;;;;;5039255;28;20052;-79
2021/05/18 16:18:31;;;;;;;14.18;12.68;;;15.20;99.90;;;;;;5039280;28;20076;-80
2021/05/18 16:20:57;;;;;;;15.10;13.60;;;15.00;99.90;;;;;;5039114;28;20323;-81
2021/05/18 16:23:25;;;;;;;15.43;13.70;;;14.70;99.90;;;;;;5038627;28;20565;-82
2021/05/18 16:25:53;;;;;;;16.33;14.63;;;14.80;99.90;;;;;;5037945;28;20057;-82
2021/05/18 16:28:19;;;;;;;14.82;13.30;;;14.80;99.90;;;;;;5038066;28;20052;-80
2021/05/18 16:30:47;;;;;;;16.52;14.82;;;14.80;99.90;;;;;;5037481;28;20144;-80
2021/05/18 16:33:14;;;;;;;19.92;16.30;;;14.80;99.90;;;;;;5039145;28;20076;-81
2021/05/18 16:35:40;;;;;;;19.73;16.45;;;14.90;99.90;;;;;;5038775;28;20124;-81
2021/05/18 16:38:07;;;;;;;20.08;17.05;;;15.00;99.90;;;;;;5038190;28;20053;-82
2021/05/18 16:40:33;;;;;;;23.08;18.42;;;14.90;99.90;;;;;;5039007;28;20088;-81
2021/05/18 16:43:00;;;;;;;24.83;19.25;;;14.70;99.90;;;;;;5038501;28;20057;-80
2021/05/18 16:45:26;;;;;;;20.40;17.13;;;14.70;99.90;;;;;;5038664;28;20109;-80
2021/05/18 16:47:54;;;;;;;18.25;15.55;;;14.70;99.90;;;;;;5036966;28;20209;-83
2021/05/18 16:50:21;;;;;;;17.00;14.70;;;14.60;99.90;;;;;;5035959;28;20045;-80
2021/05/18 16:52:49;;;;;;;16.52;14.48;;;14.40;99.90;;;;;;5036452;28;20045;-84
2021/05/18 16:55:17;;;;;;;17.30;14.85;;;14.50;99.90;;;;;;5018228;28;20042;-84
2021/05/18 16:57:46;;;;;;;17.00;14.93;;;14.40;99.90;;;;;;5018602;28;20069;-82
2021/05/18 17:00:17;;;;;;;16.02;13.60;;;14.40;99.90;;;;;;5020454;28;20057;-81
2021/05/18 17:02:44;;;;;;;13.82;12.30;;;14.40;99.90;;;;;;5021600;28;20049;-81
2021/05/18 17:05:12;;;;;;;13.23;11.27;;;14.50;99.90;;;;;;5022541;28;20053;-81
2021/05/18 17:07:42;;;;;;;12.35;10.93;;;14.50;99.90;;;;;;5021773;28;20056;-81
2021/05/18 17:10:09;;;;;;;15.63;13.05;;;14.50;99.90;;;;;;5022123;28;20058;-80